sensor_id;sensor_type;location;lat;lon;timestamp;temperature;humidity
2130;DHT22;1071;52.544;13.374;2023-05-27T00:02:09;14.60;92.70
2130;DHT22;1071;52.544;13.374;2023-05-27T00:04:36;14.60;92.80
2130;DHT22;1071;52.544;13.374;2023-05-27T00:07:03;14.60;92.90
2130;DHT22;1071;52.544;13.374;2023-05-27T00:09:30;14.50;93.20
2130;DHT22;1071;52.544;13.374;2023-05-27T00:11:57;14.40;93.40
2130;DHT22;1071;52.544;13.374;2023-05-27T00:14:26;14.40;93.60
2130;DHT22;1071;52.544;13.374;2023-05-27T00:16:53;14.40;93.80
2130;DHT22;1071;52.544;13.374;2023-05-27T00:19:20;14.30;93.90
2130;DHT22;1071;52.544;13.374;2023-05-27T00:21:47;14.30;94.10
2130;DHT22;1071;52.544;13.374;2023-05-27T00:24:14;14.30;94.30
2130;DHT22;1071;52.544;13.374;2023-05-27T00:26:44;14.20;94.30
2130;DHT22;1071;52.544;13.374;2023-05-27T00:29:11;14.20;94.60
2130;DHT22;1071;52.544;13.374;2023-05-27T00:31:39;14.20;94.80
2130;DHT22;1071;52.544;13.374;2023-05-27T00:34:06;14.20;94.80
2130;DHT22;1071;52.544;13.374;2023-05-27T00:36:33;14.20;94.90
2130;DHT22;1071;52.544;13.374;2023-05-27T00:39:01;14.20;95.10
2130;DHT22;1071;52.544;13.374;2023-05-27T00:41:28;14.20;95.20
2130;DHT22;1071;52.544;13.374;2023-05-27T00:43:56;14.20;95.30
2130;DHT22;1071;52.544;13.374;2023-05-27T00:46:23;14.20;95.40
2130;DHT22;1071;52.544;13.374;2023-05-27T00:48:52;14.20;95.50
2130;DHT22;1071;52.544;13.374;2023-05-27T00:51:19;14.20;95.70
2130;DHT22;1071;52.544;13.374;2023-05-27T00:53:46;14.20;95.70
2130;DHT22;1071;52.544;13.374;2023-05-27T00:56:13;14.20;95.80
2130;DHT22;1071;52.544;13.374;2023-05-27T00:58:43;14.20;95.80
2130;DHT22;1071;52.544;13.374;2023-05-27T01:01:10;14.20;95.90
2130;DHT22;1071;52.544;13.374;2023-05-27T01:03:37;14.20;96.00
2130;DHT22;1071;52.544;13.374;2023-05-27T01:06:15;14.20;96.10
2130;DHT22;1071;52.544;13.374;2023-05-27T01:08:52;14.20;96.20
2130;DHT22;1071;52.544;13.374;2023-05-27T01:11:24;14.20;96.20
2130;DHT22;1071;52.544;13.374;2023-05-27T01:13:57;14.10;96.40
2130;DHT22;1071;52.544;13.374;2023-05-27T01:16:26;14.10;96.40
2130;DHT22;1071;52.544;13.374;2023-05-27T01:18:54;14.10;96.60
2130;DHT22;1071;52.544;13.374;2023-05-27T01:21:28;14.10;96.60
2130;DHT22;1071;52.544;13.374;2023-05-27T01:24:02;14.10;96.70
2130;DHT22;1071;52.544;13.374;2023-05-27T01:26:29;14.10;96.90
2130;DHT22;1071;52.544;13.374;2023-05-27T01:28:56;14.10;96.90
2130;DHT22;1071;52.544;13.374;2023-05-27T01:31:27;14.00;97.10
2130;DHT22;1071;52.544;13.374;2023-05-27T01:33:59;14.10;97.10
2130;DHT22;1071;52.544;13.374;2023-05-27T01:36:30;14.10;97.10
2130;DHT22;1071;52.544;13.374;2023-05-27T01:39:00;14.00;97.30
2130;DHT22;1071;52.544;13.374;2023-05-27T01:41:29;14.00;97.20
2130;DHT22;1071;52.544;13.374;2023-05-27T01:43:56;14.00;97.30
2130;DHT22;1071;52.544;13.374;2023-05-27T01:46:24;14.00;97.40
2130;DHT22;1071;52.544;13.374;2023-05-27T01:48:52;14.00;97.50
2130;DHT22;1071;52.544;13.374;2023-05-27T01:51:19;14.00;97.60
2130;DHT22;1071;52.544;13.374;2023-05-27T01:53:46;14.00;97.60
2130;DHT22;1071;52.544;13.374;2023-05-27T01:56:14;14.00;97.80
2130;DHT22;1071;52.544;13.374;2023-05-27T01:58:41;14.00;98.10
2130;DHT22;1071;52.544;13.374;2023-05-27T02:01:08;13.90;98.10
2130;DHT22;1071;52.544;13.374;2023-05-27T02:03:36;13.90;98.30
2130;DHT22;1071;52.544;13.374;2023-05-27T02:06:03;13.90;98.40
2130;DHT22;1071;52.544;13.374;2023-05-27T02:08:30;13.80;98.50
2130;DHT22;1071;52.544;13.374;2023-05-27T02:10:58;13.80;98.60
2130;DHT22;1071;52.544;13.374;2023-05-27T02:13:26;13.80;98.80
2130;DHT22;1071;52.544;13.374;2023-05-27T02:15:54;13.70;98.90
2130;DHT22;1071;52.544;13.374;2023-05-27T02:18:21;13.70;99.20
2130;DHT22;1071;52.544;13.374;2023-05-27T02:20:48;13.70;99.30
2130;DHT22;1071;52.544;13.374;2023-05-27T02:23:17;13.60;99.50
2130;DHT22;1071;52.544;13.374;2023-05-27T02:25:45;13.70;99.60
2130;DHT22;1071;52.544;13.374;2023-05-27T02:28:28;13.70;99.60
2130;DHT22;1071;52.544;13.374;2023-05-27T02:30:59;13.70;99.90
2130;DHT22;1071;52.544;13.374;2023-05-27T02:33:27;13.70;99.90
2130;DHT22;1071;52.544;13.374;2023-05-27T02:35:54;13.70;99.90
2130;DHT22;1071;52.544;13.374;2023-05-27T02:38:21;13.70;99.90
2130;DHT22;1071;52.544;13.374;2023-05-27T02:40:48;13.70;99.90
2130;DHT22;1071;52.544;13.374;2023-05-27T02:43:15;13.70;99.90
2130;DHT22;1071;52.544;13.374;2023-05-27T02:45:44;13.70;99.90
2130;DHT22;1071;52.544;13.374;2023-05-27T02:48:10;13.70;99.90
2130;DHT22;1071;52.544;13.374;2023-05-27T02:50:38;13.70;99.90
2130;DHT22;1071;52.544;13.374;2023-05-27T02:53:05;13.60;99.90
2130;DHT22;1071;52.544;13.374;2023-05-27T02:55:32;13.60;99.90
2130;DHT22;1071;52.544;13.374;2023-05-27T02:58:02;13.60;99.90
2130;DHT22;1071;52.544;13.374;2023-05-27T03:00:30;13.60;99.90
2130;DHT22;1071;52.544;13.374;2023-05-27T03:02:58;13.50;99.90
2130;DHT22;1071;52.544;13.374;2023-05-27T03:05:25;13.50;99.90
2130;DHT22;1071;52.544;13.374;2023-05-27T03:07:52;13.50;99.90
2130;DHT22;1071;52.544;13.374;2023-05-27T03:10:19;13.50;99.90
2130;DHT22;1071;52.544;13.374;2023-05-27T03:12:50;13.50;99.90
2130;DHT22;1071;52.544;13.374;2023-05-27T03:15:17;13.40;99.90
2130;DHT22;1071;52.544;13.374;2023-05-27T03:17:44;13.40;99.90
2130;DHT22;1071;52.544;13.374;2023-05-27T03:20:13;13.40;99.90
2130;DHT22;1071;52.544;13.374;2023-05-27T03:22:42;13.40;99.90
2130;DHT22;1071;52.544;13.374;2023-05-27T03:25:09;13.40;99.90
2130;DHT22;1071;52.544;13.374;2023-05-27T03:27:36;13.40;99.90
2130;DHT22;1071;52.544;13.374;2023-05-27T03:30:06;13.30;99.90
2130;DHT22;1071;52.544;13.374;2023-05-27T03:32:34;13.30;99.90
2130;DHT22;1071;52.544;13.374;2023-05-27T03:35:01;13.30;99.90
2130;DHT22;1071;52.544;13.374;2023-05-27T03:37:29;13.30;99.90
2130;DHT22;1071;52.544;13.374;2023-05-27T03:39:58;13.30;99.90
2130;DHT22;1071;52.544;13.374;2023-05-27T03:42:25;13.40;99.90
2130;DHT22;1071;52.544;13.374;2023-05-27T03:44:52;13.40;99.90
2130;DHT22;1071;52.544;13.374;2023-05-27T03:47:19;13.40;99.90
2130;DHT22;1071;52.544;13.374;2023-05-27T03:49:47;13.40;99.90
2130;DHT22;1071;52.544;13.374;2023-05-27T03:52:14;13.40;99.90
2130;DHT22;1071;52.544;13.374;2023-05-27T03:54:43;13.40;99.90
2130;DHT22;1071;52.544;13.374;2023-05-27T03:57:12;13.40;99.90
2130;DHT22;1071;52.544;13.374;2023-05-27T03:59:39;13.50;99.90
2130;DHT22;1071;52.544;13.374;2023-05-27T04:02:06;13.50;99.90
2130;DHT22;1071;52.544;13.374;2023-05-27T04:04:33;13.50;99.90
2130;DHT22;1071;52.544;13.374;2023-05-27T04:07:00;13.50;99.90
2130;DHT22;1071;52.544;13.374;2023-05-27T04:09:27;13.50;99.90
2130;DHT22;1071;52.544;13.374;2023-05-27T04:11:55;13.50;99.90
2130;DHT22;1071;52.544;13.374;2023-05-27T04:14:22;13.50;99.90
2130;DHT22;1071;52.544;13.374;2023-05-27T04:16:49;13.50;99.90
2130;DHT22;1071;52.544;13.374;2023-05-27T04:19:21;13.60;99.90
2130;DHT22;1071;52.544;13.374;2023-05-27T04:21:48;13.60;99.90
2130;DHT22;1071;52.544;13.374;2023-05-27T04:24:15;13.60;99.90
2130;DHT22;1071;52.544;13.374;2023-05-27T04:26:41;13.60;99.90
2130;DHT22;1071;52.544;13.374;2023-05-27T04:29:10;13.70;99.90
2130;DHT22;1071;52.544;13.374;2023-05-27T04:31:37;13.60;99.90
2130;DHT22;1071;52.544;13.374;2023-05-27T04:34:04;13.60;99.90
2130;DHT22;1071;52.544;13.374;2023-05-27T04:36:31;13.70;99.90
2130;DHT22;1071;52.544;13.374;2023-05-27T04:38:59;13.70;99.90
2130;DHT22;1071;52.544;13.374;2023-05-27T04:41:27;13.70;99.90
2130;DHT22;1071;52.544;13.374;2023-05-27T04:43:55;13.70;99.90
2130;DHT22;1071;52.544;13.374;2023-05-27T04:46:28;13.80;99.90
2130;DHT22;1071;52.544;13.374;2023-05-27T04:48:55;13.70;99.90
2130;DHT22;1071;52.544;13.374;2023-05-27T04:51:25;13.80;99.90
2130;DHT22;1071;52.544;13.374;2023-05-27T04:53:55;13.80;99.90
2130;DHT22;1071;52.544;13.374;2023-05-27T04:56:44;13.80;99.90
2130;DHT22;1071;52.544;13.374;2023-05-27T04:59:19;13.80;99.90
2130;DHT22;1071;52.544;13.374;2023-05-27T05:01:50;13.80;99.90
2130;DHT22;1071;52.544;13.374;2023-05-27T05:04:35;13.80;99.90
2130;DHT22;1071;52.544;13.374;2023-05-27T05:07:02;13.90;99.90
2130;DHT22;1071;52.544;13.374;2023-05-27T05:09:30;13.90;99.90
2130;DHT22;1071;52.544;13.374;2023-05-27T05:12:08;13.90;99.90
2130;DHT22;1071;52.544;13.374;2023-05-27T05:14:37;13.90;99.90
2130;DHT22;1071;52.544;13.374;2023-05-27T05:17:06;13.90;99.90
2130;DHT22;1071;52.544;13.374;2023-05-27T05:19:38;14.00;99.90
2130;DHT22;1071;52.544;13.374;2023-05-27T05:22:05;14.00;99.90
2130;DHT22;1071;52.544;13.374;2023-05-27T05:24:40;14.10;99.90
2130;DHT22;1071;52.544;13.374;2023-05-27T05:27:06;14.10;99.90
2130;DHT22;1071;52.544;13.374;2023-05-27T05:29:33;14.20;99.90
2130;DHT22;1071;52.544;13.374;2023-05-27T05:32:00;14.30;99.90
2130;DHT22;1071;52.544;13.374;2023-05-27T05:34:29;14.40;99.90
2130;DHT22;1071;52.544;13.374;2023-05-27T05:37:03;14.40;99.90
2130;DHT22;1071;52.544;13.374;2023-05-27T05:39:36;14.40;99.90
2130;DHT22;1071;52.544;13.374;2023-05-27T05:42:12;14.50;99.90
2130;DHT22;1071;52.544;13.374;2023-05-27T05:44:39;14.60;99.90
2130;DHT22;1071;52.544;13.374;2023-05-27T05:47:06;14.70;99.90
2130;DHT22;1071;52.544;13.374;2023-05-27T05:49:35;14.80;99.90
2130;DHT22;1071;52.544;13.374;2023-05-27T05:52:04;14.90;99.90
2130;DHT22;1071;52.544;13.374;2023-05-27T05:54:31;15.00;99.90
2130;DHT22;1071;52.544;13.374;2023-05-27T05:56:59;15.10;99.90
2130;DHT22;1071;52.544;13.374;2023-05-27T05:59:30;15.20;99.90
2130;DHT22;1071;52.544;13.374;2023-05-27T06:01:58;15.30;99.90
2130;DHT22;1071;52.544;13.374;2023-05-27T06:04:26;15.30;99.90
2130;DHT22;1071;52.544;13.374;2023-05-27T06:06:54;15.50;99.80
2130;DHT22;1071;52.544;13.374;2023-05-27T06:09:22;15.60;99.60
2130;DHT22;1071;52.544;13.374;2023-05-27T06:11:51;15.70;98.70
2130;DHT22;1071;52.544;13.374;2023-05-27T06:14:19;15.80;98.50
2130;DHT22;1071;52.544;13.374;2023-05-27T06:16:47;15.90;98.30
2130;DHT22;1071;52.544;13.374;2023-05-27T06:19:14;16.10;96.80
2130;DHT22;1071;52.544;13.374;2023-05-27T06:21:41;16.20;96.40
2130;DHT22;1071;52.544;13.374;2023-05-27T06:24:10;16.30;95.20
2130;DHT22;1071;52.544;13.374;2023-05-27T06:26:37;16.40;94.40
2130;DHT22;1071;52.544;13.374;2023-05-27T06:29:12;16.60;93.50
2130;DHT22;1071;52.544;13.374;2023-05-27T06:31:42;16.70;93.20
2130;DHT22;1071;52.544;13.374;2023-05-27T06:34:12;16.90;92.90
2130;DHT22;1071;52.544;13.374;2023-05-27T06:36:54;17.10;92.10
2130;DHT22;1071;52.544;13.374;2023-05-27T06:39:24;17.20;91.60
2130;DHT22;1071;52.544;13.374;2023-05-27T06:41:51;17.40;91.20
2130;DHT22;1071;52.544;13.374;2023-05-27T06:44:18;17.60;87.70
2130;DHT22;1071;52.544;13.374;2023-05-27T06:46:45;17.70;85.20
2130;DHT22;1071;52.544;13.374;2023-05-27T06:49:12;17.90;82.60
2130;DHT22;1071;52.544;13.374;2023-05-27T06:51:39;18.00;78.30
2130;DHT22;1071;52.544;13.374;2023-05-27T06:54:07;18.20;78.40
2130;DHT22;1071;52.544;13.374;2023-05-27T06:56:39;18.40;76.70
2130;DHT22;1071;52.544;13.374;2023-05-27T06:59:13;18.50;75.40
2130;DHT22;1071;52.544;13.374;2023-05-27T07:01:40;18.60;75.60
2130;DHT22;1071;52.544;13.374;2023-05-27T07:04:14;18.70;75.80
2130;DHT22;1071;52.544;13.374;2023-05-27T07:06:44;18.70;73.70
2130;DHT22;1071;52.544;13.374;2023-05-27T07:09:11;18.80;73.00
2130;DHT22;1071;52.544;13.374;2023-05-27T07:11:40;18.90;72.40
2130;DHT22;1071;52.544;13.374;2023-05-27T07:14:07;19.00;71.50
2130;DHT22;1071;52.544;13.374;2023-05-27T07:16:36;19.10;71.50
2130;DHT22;1071;52.544;13.374;2023-05-27T07:19:03;19.20;72.10
2130;DHT22;1071;52.544;13.374;2023-05-27T07:21:30;19.20;71.70
2130;DHT22;1071;52.544;13.374;2023-05-27T07:23:57;19.30;72.20
2130;DHT22;1071;52.544;13.374;2023-05-27T07:26:28;19.40;72.30
2130;DHT22;1071;52.544;13.374;2023-05-27T07:28:59;19.60;72.90
2130;DHT22;1071;52.544;13.374;2023-05-27T07:31:27;19.70;73.40
2130;DHT22;1071;52.544;13.374;2023-05-27T07:33:55;19.90;72.40
2130;DHT22;1071;52.544;13.374;2023-05-27T07:36:22;20.00;71.90
2130;DHT22;1071;52.544;13.374;2023-05-27T07:38:49;20.20;68.50
2130;DHT22;1071;52.544;13.374;2023-05-27T07:41:16;20.30;66.70
2130;DHT22;1071;52.544;13.374;2023-05-27T07:43:43;20.40;64.80
2130;DHT22;1071;52.544;13.374;2023-05-27T07:46:11;20.60;65.20
2130;DHT22;1071;52.544;13.374;2023-05-27T07:48:38;20.70;64.90
2130;DHT22;1071;52.544;13.374;2023-05-27T07:51:05;20.80;63.60
2130;DHT22;1071;52.544;13.374;2023-05-27T07:53:36;20.80;62.20
2130;DHT22;1071;52.544;13.374;2023-05-27T07:56:03;20.80;62.60
2130;DHT22;1071;52.544;13.374;2023-05-27T07:58:33;20.90;62.00
2130;DHT22;1071;52.544;13.374;2023-05-27T08:01:00;21.00;61.90
2130;DHT22;1071;52.544;13.374;2023-05-27T08:03:29;21.10;60.70
2130;DHT22;1071;52.544;13.374;2023-05-27T08:05:56;21.20;60.30
2130;DHT22;1071;52.544;13.374;2023-05-27T08:08:24;21.30;60.80
2130;DHT22;1071;52.544;13.374;2023-05-27T08:10:51;21.30;59.00
2130;DHT22;1071;52.544;13.374;2023-05-27T08:13:22;21.40;59.30
2130;DHT22;1071;52.544;13.374;2023-05-27T08:15:49;21.40;59.30
2130;DHT22;1071;52.544;13.374;2023-05-27T08:18:16;21.50;58.40
2130;DHT22;1071;52.544;13.374;2023-05-27T08:20:44;21.60;56.90
2130;DHT22;1071;52.544;13.374;2023-05-27T08:23:11;21.60;56.30
2130;DHT22;1071;52.544;13.374;2023-05-27T08:25:44;21.60;54.90
2130;DHT22;1071;52.544;13.374;2023-05-27T08:28:17;21.60;55.20
2130;DHT22;1071;52.544;13.374;2023-05-27T08:30:44;21.70;55.40
2130;DHT22;1071;52.544;13.374;2023-05-27T08:33:12;21.80;55.10
2130;DHT22;1071;52.544;13.374;2023-05-27T08:35:40;21.70;55.00
2130;DHT22;1071;52.544;13.374;2023-05-27T08:38:08;21.70;54.90
2130;DHT22;1071;52.544;13.374;2023-05-27T08:40:35;21.80;55.50
2130;DHT22;1071;52.544;13.374;2023-05-27T08:43:06;21.90;55.50
2130;DHT22;1071;52.544;13.374;2023-05-27T08:45:33;21.90;55.70
2130;DHT22;1071;52.544;13.374;2023-05-27T08:48:01;21.90;55.00
2130;DHT22;1071;52.544;13.374;2023-05-27T08:50:31;21.90;54.80
2130;DHT22;1071;52.544;13.374;2023-05-27T08:53:01;21.90;54.10
2130;DHT22;1071;52.544;13.374;2023-05-27T08:55:30;21.90;53.40
2130;DHT22;1071;52.544;13.374;2023-05-27T08:57:59;21.70;52.50
2130;DHT22;1071;52.544;13.374;2023-05-27T09:00:26;21.70;52.50
2130;DHT22;1071;52.544;13.374;2023-05-27T09:02:54;21.60;53.10
2130;DHT22;1071;52.544;13.374;2023-05-27T09:05:21;21.60;53.00
2130;DHT22;1071;52.544;13.374;2023-05-27T09:07:49;21.50;51.90
2130;DHT22;1071;52.544;13.374;2023-05-27T09:10:16;21.50;51.50
2130;DHT22;1071;52.544;13.374;2023-05-27T09:12:45;21.40;51.30
2130;DHT22;1071;52.544;13.374;2023-05-27T09:15:13;21.30;52.00
2130;DHT22;1071;52.544;13.374;2023-05-27T09:17:41;21.30;52.50
2130;DHT22;1071;52.544;13.374;2023-05-27T09:20:13;21.30;52.20
2130;DHT22;1071;52.544;13.374;2023-05-27T09:22:41;21.20;51.90
2130;DHT22;1071;52.544;13.374;2023-05-27T09:25:09;21.30;51.40
2130;DHT22;1071;52.544;13.374;2023-05-27T09:27:36;21.20;51.90
2130;DHT22;1071;52.544;13.374;2023-05-27T09:30:08;21.20;50.90
2130;DHT22;1071;52.544;13.374;2023-05-27T09:32:37;21.20;50.70
2130;DHT22;1071;52.544;13.374;2023-05-27T09:35:05;21.20;50.90
2130;DHT22;1071;52.544;13.374;2023-05-27T09:37:34;21.20;51.50
2130;DHT22;1071;52.544;13.374;2023-05-27T09:40:05;21.20;50.70
2130;DHT22;1071;52.544;13.374;2023-05-27T09:42:43;21.20;50.90
2130;DHT22;1071;52.544;13.374;2023-05-27T09:45:13;21.10;50.60
2130;DHT22;1071;52.544;13.374;2023-05-27T09:47:46;21.10;50.90
2130;DHT22;1071;52.544;13.374;2023-05-27T09:50:14;21.10;51.10
2130;DHT22;1071;52.544;13.374;2023-05-27T09:52:42;21.00;50.70
2130;DHT22;1071;52.544;13.374;2023-05-27T09:55:13;21.00;50.90
2130;DHT22;1071;52.544;13.374;2023-05-27T09:57:41;21.00;51.40
2130;DHT22;1071;52.544;13.374;2023-05-27T10:00:09;21.00;51.10
2130;DHT22;1071;52.544;13.374;2023-05-27T10:02:45;21.00;50.40
2130;DHT22;1071;52.544;13.374;2023-05-27T10:05:13;21.10;50.30
2130;DHT22;1071;52.544;13.374;2023-05-27T10:07:44;21.00;50.40
2130;DHT22;1071;52.544;13.374;2023-05-27T10:10:14;21.10;50.00
2130;DHT22;1071;52.544;13.374;2023-05-27T10:12:46;21.10;49.60
2130;DHT22;1071;52.544;13.374;2023-05-27T10:15:21;21.20;49.60
2130;DHT22;1071;52.544;13.374;2023-05-27T10:17:53;21.20;49.20
2130;DHT22;1071;52.544;13.374;2023-05-27T10:20:26;21.20;49.10
2130;DHT22;1071;52.544;13.374;2023-05-27T10:22:54;21.20;48.80
2130;DHT22;1071;52.544;13.374;2023-05-27T10:25:23;21.20;48.80
2130;DHT22;1071;52.544;13.374;2023-05-27T10:28:05;21.30;48.90
2130;DHT22;1071;52.544;13.374;2023-05-27T10:30:43;21.30;49.00
2130;DHT22;1071;52.544;13.374;2023-05-27T10:33:12;21.30;48.70
2130;DHT22;1071;52.544;13.374;2023-05-27T10:35:40;21.40;49.00
2130;DHT22;1071;52.544;13.374;2023-05-27T10:38:17;21.50;48.70
2130;DHT22;1071;52.544;13.374;2023-05-27T10:40:46;21.50;48.70
2130;DHT22;1071;52.544;13.374;2023-05-27T10:43:15;21.50;48.80
2130;DHT22;1071;52.544;13.374;2023-05-27T10:45:43;21.50;48.20
2130;DHT22;1071;52.544;13.374;2023-05-27T10:48:17;21.50;48.00
2130;DHT22;1071;52.544;13.374;2023-05-27T10:50:50;21.50;48.30
2130;DHT22;1071;52.544;13.374;2023-05-27T10:53:21;21.60;49.30
2130;DHT22;1071;52.544;13.374;2023-05-27T10:55:48;21.60;48.70
2130;DHT22;1071;52.544;13.374;2023-05-27T10:58:17;21.60;48.70
2130;DHT22;1071;52.544;13.374;2023-05-27T11:00:45;21.60;48.20
2130;DHT22;1071;52.544;13.374;2023-05-27T11:03:19;21.60;48.50
2130;DHT22;1071;52.544;13.374;2023-05-27T11:05:56;21.60;48.70
2130;DHT22;1071;52.544;13.374;2023-05-27T11:08:24;21.50;48.90
2130;DHT22;1071;52.544;13.374;2023-05-27T11:10:57;21.50;49.90
2130;DHT22;1071;52.544;13.374;2023-05-27T11:13:30;21.60;49.80
2130;DHT22;1071;52.544;13.374;2023-05-27T11:15:57;21.70;49.70
2130;DHT22;1071;52.544;13.374;2023-05-27T11:18:34;21.60;49.40
2130;DHT22;1071;52.544;13.374;2023-05-27T11:21:03;21.60;49.20
2130;DHT22;1071;52.544;13.374;2023-05-27T11:23:35;21.70;49.70
2130;DHT22;1071;52.544;13.374;2023-05-27T11:26:02;21.70;49.90
2130;DHT22;1071;52.544;13.374;2023-05-27T11:28:30;21.60;49.40
2130;DHT22;1071;52.544;13.374;2023-05-27T11:31:02;21.60;50.10
2130;DHT22;1071;52.544;13.374;2023-05-27T11:33:32;21.70;50.10
2130;DHT22;1071;52.544;13.374;2023-05-27T11:36:06;21.70;50.10
2130;DHT22;1071;52.544;13.374;2023-05-27T11:38:46;21.80;50.10
2130;DHT22;1071;52.544;13.374;2023-05-27T11:41:13;21.90;49.80
2130;DHT22;1071;52.544;13.374;2023-05-27T11:43:47;21.80;49.40
2130;DHT22;1071;52.544;13.374;2023-05-27T11:46:14;21.90;49.90
2130;DHT22;1071;52.544;13.374;2023-05-27T11:48:43;21.90;50.20
2130;DHT22;1071;52.544;13.374;2023-05-27T11:51:10;21.90;50.40
2130;DHT22;1071;52.544;13.374;2023-05-27T11:53:40;21.90;50.20
2130;DHT22;1071;52.544;13.374;2023-05-27T11:56:07;22.00;50.10
2130;DHT22;1071;52.544;13.374;2023-05-27T11:58:39;22.10;50.70
2130;DHT22;1071;52.544;13.374;2023-05-27T12:01:09;22.00;50.30
2130;DHT22;1071;52.544;13.374;2023-05-27T12:03:36;22.10;50.20
2130;DHT22;1071;52.544;13.374;2023-05-27T12:06:05;22.10;50.00
2130;DHT22;1071;52.544;13.374;2023-05-27T12:08:34;22.10;50.20
2130;DHT22;1071;52.544;13.374;2023-05-27T12:11:01;22.20;50.40
2130;DHT22;1071;52.544;13.374;2023-05-27T12:13:28;22.20;50.30
2130;DHT22;1071;52.544;13.374;2023-05-27T12:16:00;22.20;50.40
2130;DHT22;1071;52.544;13.374;2023-05-27T12:18:28;22.20;49.50
2130;DHT22;1071;52.544;13.374;2023-05-27T12:20:55;22.10;49.70
2130;DHT22;1071;52.544;13.374;2023-05-27T12:23:24;22.00;49.60
2130;DHT22;1071;52.544;13.374;2023-05-27T12:25:51;21.90;49.50
2130;DHT22;1071;52.544;13.374;2023-05-27T12:28:22;21.90;49.30
2130;DHT22;1071;52.544;13.374;2023-05-27T12:30:49;21.90;50.10
2130;DHT22;1071;52.544;13.374;2023-05-27T12:33:16;21.90;49.60
2130;DHT22;1071;52.544;13.374;2023-05-27T12:35:43;21.90;49.00
2130;DHT22;1071;52.544;13.374;2023-05-27T12:38:10;21.90;49.10
2130;DHT22;1071;52.544;13.374;2023-05-27T12:40:39;22.00;49.20
2130;DHT22;1071;52.544;13.374;2023-05-27T12:43:06;22.00;48.70
2130;DHT22;1071;52.544;13.374;2023-05-27T12:45:36;21.90;49.00
2130;DHT22;1071;52.544;13.374;2023-05-27T12:48:04;21.90;48.80
2130;DHT22;1071;52.544;13.374;2023-05-27T12:50:31;21.90;48.00
2130;DHT22;1071;52.544;13.374;2023-05-27T12:52:58;22.00;48.50
2130;DHT22;1071;52.544;13.374;2023-05-27T12:55:25;22.00;48.60
2130;DHT22;1071;52.544;13.374;2023-05-27T12:57:56;22.00;48.10
2130;DHT22;1071;52.544;13.374;2023-05-27T13:00:27;22.00;47.80
2130;DHT22;1071;52.544;13.374;2023-05-27T13:02:54;22.00;47.70
2130;DHT22;1071;52.544;13.374;2023-05-27T13:05:22;22.00;48.00
2130;DHT22;1071;52.544;13.374;2023-05-27T13:07:53;22.00;48.10
2130;DHT22;1071;52.544;13.374;2023-05-27T13:10:22;21.90;48.20
2130;DHT22;1071;52.544;13.374;2023-05-27T13:12:49;21.90;48.20
2130;DHT22;1071;52.544;13.374;2023-05-27T13:15:18;21.90;48.20
2130;DHT22;1071;52.544;13.374;2023-05-27T13:17:46;21.90;48.00
2130;DHT22;1071;52.544;13.374;2023-05-27T13:20:14;21.90;48.10
2130;DHT22;1071;52.544;13.374;2023-05-27T13:22:42;22.00;48.20
2130;DHT22;1071;52.544;13.374;2023-05-27T13:25:13;21.90;47.70
2130;DHT22;1071;52.544;13.374;2023-05-27T13:27:41;21.90;47.70
2130;DHT22;1071;52.544;13.374;2023-05-27T13:30:12;21.90;47.60
2130;DHT22;1071;52.544;13.374;2023-05-27T13:32:41;21.90;47.80
2130;DHT22;1071;52.544;13.374;2023-05-27T13:35:09;21.80;48.00
2130;DHT22;1071;52.544;13.374;2023-05-27T13:37:45;21.80;48.20
2130;DHT22;1071;52.544;13.374;2023-05-27T13:40:13;21.80;48.00
2130;DHT22;1071;52.544;13.374;2023-05-27T13:42:46;21.90;48.50
2130;DHT22;1071;52.544;13.374;2023-05-27T13:45:13;21.90;48.80
2130;DHT22;1071;52.544;13.374;2023-05-27T13:47:42;22.00;49.30
2130;DHT22;1071;52.544;13.374;2023-05-27T13:50:10;22.00;49.40
2130;DHT22;1071;52.544;13.374;2023-05-27T13:52:37;22.10;48.80
2130;DHT22;1071;52.544;13.374;2023-05-27T13:55:07;22.10;49.00
2130;DHT22;1071;52.544;13.374;2023-05-27T13:57:38;22.10;49.30
2130;DHT22;1071;52.544;13.374;2023-05-27T14:00:10;22.00;49.00
2130;DHT22;1071;52.544;13.374;2023-05-27T14:02:38;22.00;49.00
2130;DHT22;1071;52.544;13.374;2023-05-27T14:05:10;22.00;49.20
2130;DHT22;1071;52.544;13.374;2023-05-27T14:07:40;22.10;49.00
2130;DHT22;1071;52.544;13.374;2023-05-27T14:10:09;21.90;48.40
2130;DHT22;1071;52.544;13.374;2023-05-27T14:12:36;21.90;48.30
2130;DHT22;1071;52.544;13.374;2023-05-27T14:15:04;21.80;48.20
2130;DHT22;1071;52.544;13.374;2023-05-27T14:17:32;21.90;48.50
2130;DHT22;1071;52.544;13.374;2023-05-27T14:19:59;21.90;48.80
2130;DHT22;1071;52.544;13.374;2023-05-27T14:22:28;21.80;48.50
2130;DHT22;1071;52.544;13.374;2023-05-27T14:24:55;21.80;48.80
2130;DHT22;1071;52.544;13.374;2023-05-27T14:27:24;21.80;49.00
2130;DHT22;1071;52.544;13.374;2023-05-27T14:29:55;21.80;49.00
2130;DHT22;1071;52.544;13.374;2023-05-27T14:32:22;21.80;49.00
2130;DHT22;1071;52.544;13.374;2023-05-27T14:34:49;21.80;49.20
2130;DHT22;1071;52.544;13.374;2023-05-27T14:37:17;21.80;49.40
2130;DHT22;1071;52.544;13.374;2023-05-27T14:39:45;21.90;49.40
2130;DHT22;1071;52.544;13.374;2023-05-27T14:42:12;21.90;49.50
2130;DHT22;1071;52.544;13.374;2023-05-27T14:44:42;21.90;49.40
2130;DHT22;1071;52.544;13.374;2023-05-27T14:47:10;21.90;49.20
2130;DHT22;1071;52.544;13.374;2023-05-27T14:49:38;21.90;49.20
2130;DHT22;1071;52.544;13.374;2023-05-27T14:52:05;21.90;49.20
2130;DHT22;1071;52.544;13.374;2023-05-27T14:54:32;21.90;49.80
2130;DHT22;1071;52.544;13.374;2023-05-27T14:57:00;21.80;50.00
2130;DHT22;1071;52.544;13.374;2023-05-27T14:59:37;21.80;49.70
2130;DHT22;1071;52.544;13.374;2023-05-27T15:02:11;21.80;49.70
2130;DHT22;1071;52.544;13.374;2023-05-27T15:04:40;21.80;49.60
2130;DHT22;1071;52.544;13.374;2023-05-27T15:07:15;21.80;49.40
2130;DHT22;1071;52.544;13.374;2023-05-27T15:09:44;21.90;49.20
2130;DHT22;1071;52.544;13.374;2023-05-27T15:12:13;21.80;49.20
2130;DHT22;1071;52.544;13.374;2023-05-27T15:14:40;21.80;49.20
2130;DHT22;1071;52.544;13.374;2023-05-27T15:17:07;21.80;49.10
2130;DHT22;1071;52.544;13.374;2023-05-27T15:19:36;21.80;49.30
2130;DHT22;1071;52.544;13.374;2023-05-27T15:22:03;21.80;49.30
2130;DHT22;1071;52.544;13.374;2023-05-27T15:24:31;21.90;49.60
2130;DHT22;1071;52.544;13.374;2023-05-27T15:26:59;21.80;49.50
2130;DHT22;1071;52.544;13.374;2023-05-27T15:29:27;21.80;49.30
2130;DHT22;1071;52.544;13.374;2023-05-27T15:31:54;21.80;49.70
2130;DHT22;1071;52.544;13.374;2023-05-27T15:34:21;21.80;49.60
2130;DHT22;1071;52.544;13.374;2023-05-27T15:36:49;21.90;49.50
2130;DHT22;1071;52.544;13.374;2023-05-27T15:39:16;21.90;49.50
2130;DHT22;1071;52.544;13.374;2023-05-27T15:41:43;21.90;49.40
2130;DHT22;1071;52.544;13.374;2023-05-27T15:44:12;21.90;49.40
2130;DHT22;1071;52.544;13.374;2023-05-27T15:46:40;21.80;47.50
2130;DHT22;1071;52.544;13.374;2023-05-27T15:49:07;21.80;47.40
2130;DHT22;1071;52.544;13.374;2023-05-27T15:51:43;21.80;47.20
2130;DHT22;1071;52.544;13.374;2023-05-27T15:54:10;21.70;47.70
2130;DHT22;1071;52.544;13.374;2023-05-27T15:56:38;21.70;47.90